createdAt,value
2023-04-05T00:01:26.784Z,68.82
2023-04-05T00:03:58.503Z,69.13
2023-04-05T00:06:28.894Z,67.96
2023-04-05T00:08:57.464Z,68.95
2023-04-05T00:11:26.169Z,71.11
2023-04-05T00:13:55.847Z,71.21
2023-04-05T00:16:24.469Z,71.08
2023-04-05T00:18:52.857Z,70.25
2023-04-05T00:21:22.552Z,69.98
2023-04-05T00:23:51.585Z,70.37
2023-04-05T00:26:20.727Z,70.24
2023-04-05T00:28:55.849Z,70.68
2023-04-05T00:31:24.752Z,70.26
2023-04-05T00:33:53.569Z,70.68
2023-04-05T00:36:22.390Z,70.40
2023-04-05T00:38:50.879Z,71.44
2023-04-05T00:41:19.470Z,71.55
2023-04-05T00:43:48.696Z,71.16
2023-04-05T00:46:18.594Z,70.69
2023-04-05T00:48:47.468Z,71.44
2023-04-05T00:51:17.309Z,72.04
2023-04-05T00:53:46.249Z,71.38
2023-04-05T00:56:16.888Z,71.25
2023-04-05T00:58:45.294Z,71.67
2023-04-05T01:01:22.435Z,71.43
2023-04-05T01:03:54.960Z,70.44
2023-04-05T01:06:38.709Z,71.73
2023-04-05T01:09:18.924Z,71.79
2023-04-05T01:11:49.883Z,71.48
2023-04-05T01:14:18.302Z,72.38
2023-04-05T01:16:49.894Z,71.22
2023-04-05T01:19:19.196Z,70.94
2023-04-05T01:22:38.194Z,70.77
2023-04-05T01:25:38.866Z,71.08
2023-04-05T01:28:33.346Z,71.82
2023-04-05T01:31:10.029Z,71.69
2023-04-05T01:33:49.381Z,72.59
2023-04-05T01:36:32.943Z,72.65
2023-04-05T01:39:03.835Z,73.15
2023-04-05T01:41:32.921Z,72.45
2023-04-05T01:44:01.463Z,72.15
2023-04-05T01:46:31.291Z,71.48
2023-04-05T01:48:59.896Z,71.48
2023-04-05T01:51:28.945Z,71.27
2023-04-05T01:53:57.380Z,71.45
2023-04-05T01:56:25.985Z,72.01
2023-04-05T01:58:54.509Z,71.82
2023-04-05T02:01:23.050Z,71.95
2023-04-05T02:03:53.412Z,72.20
2023-04-05T02:06:21.958Z,71.86
2023-04-05T02:08:50.403Z,71.70
2023-04-05T02:11:18.800Z,71.97
2023-04-05T02:13:47.518Z,71.97
2023-04-05T02:16:17.311Z,72.27
2023-04-05T02:18:50.965Z,71.84
2023-04-05T02:21:21.859Z,72.24
2023-04-05T02:23:50.269Z,72.62
2023-04-05T02:26:19.630Z,72.48
2023-04-05T02:28:48.093Z,72.37
2023-04-05T02:31:16.619Z,72.22
2023-04-05T02:33:46.610Z,72.58
2023-04-05T02:36:14.917Z,72.50
2023-04-05T02:38:44.924Z,72.63
2023-04-05T02:41:13.472Z,72.62
2023-04-05T02:43:41.879Z,72.63
2023-04-05T02:46:10.357Z,72.84
2023-04-05T02:48:43.411Z,71.93
2023-04-05T02:51:13.991Z,72.27
2023-04-05T02:53:45.069Z,72.33
2023-04-05T02:56:16.253Z,72.35
2023-04-05T02:58:49.338Z,72.35
2023-04-05T03:01:23.952Z,72.56
2023-04-05T03:03:52.505Z,72.36
2023-04-05T03:06:20.979Z,72.30
2023-04-05T03:08:52.456Z,72.22
2023-04-05T03:11:26.156Z,72.71
2023-04-05T03:13:59.035Z,72.72
2023-04-05T03:16:36.599Z,72.50
2023-04-05T03:19:12.380Z,73.03
2023-04-05T03:21:46.769Z,73.16
2023-04-05T03:24:27.259Z,73.45
2023-04-05T03:27:02.434Z,72.97
2023-04-05T03:29:35.694Z,73.41
2023-04-05T03:32:13.929Z,73.01
2023-04-05T03:34:48.777Z,73.41
2023-04-05T03:37:18.910Z,73.20
2023-04-05T03:39:55.269Z,73.10
2023-04-05T03:42:23.784Z,73.96
2023-04-05T03:44:54.853Z,74.33
2023-04-05T03:47:23.827Z,74.66
2023-04-05T03:49:54.249Z,74.57
2023-04-05T03:52:22.650Z,75.04
2023-04-05T03:54:54.427Z,76.01
2023-04-05T03:57:29.066Z,74.95
2023-04-05T04:00:00.034Z,74.50
2023-04-05T04:02:32.020Z,74.46
2023-04-05T04:05:00.621Z,73.98
2023-04-05T04:07:31.607Z,74.19
2023-04-05T04:10:02.230Z,74.58
2023-04-05T04:12:33.724Z,74.54
2023-04-05T04:15:03.895Z,74.17
2023-04-05T04:17:51.141Z,74.26
2023-04-05T04:20:40.591Z,74.72
2023-04-05T04:23:28.865Z,74.94
2023-04-05T04:26:06.170Z,74.48
2023-04-05T04:29:03.404Z,74.63
2023-04-05T04:32:06.995Z,74.74
2023-04-05T04:35:05.467Z,74.26
2023-04-05T04:37:59.087Z,74.42
2023-04-05T04:41:08.412Z,74.12
2023-04-05T04:44:03.299Z,74.40
2023-04-05T04:46:43.000Z,74.70
2023-04-05T04:49:37.382Z,74.82
2023-04-05T04:52:06.007Z,74.16
2023-04-05T04:54:36.760Z,74.43
2023-04-05T04:57:05.371Z,74.50
2023-04-05T04:59:35.172Z,74.41
2023-04-05T05:02:06.090Z,74.34
2023-04-05T05:04:36.002Z,74.41
2023-04-05T05:07:04.552Z,74.63
2023-04-05T05:09:34.898Z,74.57
2023-04-05T05:12:03.442Z,74.54
2023-04-05T05:14:31.890Z,74.37
2023-04-05T05:17:01.737Z,74.73
2023-04-05T05:19:31.734Z,75.06
2023-04-05T05:22:00.738Z,75.36
2023-04-05T05:24:29.272Z,75.13
2023-04-05T05:26:57.773Z,75.51
2023-04-05T05:29:26.338Z,75.79
2023-04-05T05:31:56.057Z,75.79
2023-04-05T05:34:25.924Z,75.35
2023-04-05T05:36:58.487Z,75.89
2023-04-05T05:39:27.108Z,75.72
2023-04-05T05:41:55.694Z,75.65
2023-04-05T05:44:24.175Z,75.56
2023-04-05T05:46:52.939Z,76.18
2023-04-05T05:49:21.949Z,75.98
2023-04-05T05:51:53.118Z,75.08
2023-04-05T05:54:21.799Z,74.26
2023-04-05T05:56:50.336Z,74.26
2023-04-05T05:59:18.892Z,73.56
2023-04-05T06:01:47.601Z,73.07
2023-04-05T06:04:16.544Z,73.19
2023-04-05T06:06:46.780Z,72.79
2023-04-05T06:09:17.059Z,73.27
2023-04-05T06:11:55.643Z,73.53
2023-04-05T06:14:25.982Z,74.03
2023-04-05T06:16:54.511Z,74.44
2023-04-05T06:19:23.337Z,73.59
2023-04-05T06:21:52.334Z,72.39
2023-04-05T06:24:22.245Z,69.73
2023-04-05T06:26:52.679Z,69.80
2023-04-05T06:29:21.111Z,68.88
2023-04-05T06:31:49.618Z,68.59
2023-04-05T06:34:18.482Z,68.18
2023-04-05T06:36:48.158Z,67.78
2023-04-05T06:39:16.608Z,67.18
2023-04-05T06:41:46.609Z,67.45
2023-04-05T06:44:15.103Z,66.84
2023-04-05T06:46:43.551Z,67.27
2023-04-05T06:49:12.152Z,66.04
2023-04-05T06:51:40.823Z,66.00
2023-04-05T06:54:09.505Z,65.69
2023-04-05T06:56:39.220Z,64.37
2023-04-05T06:59:09.453Z,62.91
2023-04-05T07:01:38.143Z,62.98
2023-04-05T07:04:06.880Z,62.04
2023-04-05T07:06:39.264Z,62.28
2023-04-05T07:09:08.000Z,61.71
2023-04-05T07:11:36.863Z,62.10
2023-04-05T07:14:05.619Z,61.80
2023-04-05T07:16:35.625Z,61.54
2023-04-05T07:19:06.110Z,61.46
2023-04-05T07:21:34.986Z,61.71
2023-04-05T07:24:03.414Z,60.00
2023-04-05T07:26:34.997Z,60.35
2023-04-05T07:29:03.359Z,61.29
2023-04-05T07:31:32.330Z,60.17
2023-04-05T07:34:03.164Z,60.26
2023-04-05T07:36:31.877Z,58.91
2023-04-05T07:39:00.878Z,58.58
2023-04-05T07:41:32.953Z,58.72
2023-04-05T07:44:01.524Z,57.85
2023-04-05T07:46:30.248Z,58.73
2023-04-05T07:49:01.505Z,58.90
2023-04-05T07:51:29.852Z,58.15
2023-04-05T07:53:59.411Z,58.43
2023-04-05T07:56:30.428Z,58.08
2023-04-05T07:58:59.540Z,58.63
2023-04-05T08:01:28.923Z,57.95
2023-04-05T08:03:58.424Z,56.99
2023-04-05T08:06:28.525Z,55.38
2023-04-05T08:08:57.258Z,55.19
2023-04-05T08:11:26.554Z,53.56
2023-04-05T08:13:55.336Z,53.57
2023-04-05T08:16:23.993Z,49.89
2023-04-05T08:18:52.528Z,46.82
2023-04-05T08:21:23.485Z,46.47
2023-04-05T08:23:53.677Z,45.81
2023-04-05T08:26:22.151Z,45.62
2023-04-05T08:28:50.645Z,44.65
2023-04-05T08:31:19.235Z,44.68
2023-04-05T08:33:47.805Z,43.47
2023-04-05T08:36:16.496Z,43.08
2023-04-05T08:38:44.883Z,40.91
2023-04-05T08:41:22.594Z,40.57
2023-04-05T08:43:59.077Z,41.87
2023-04-05T08:46:28.853Z,40.19
2023-04-05T08:48:59.400Z,41.71
2023-04-05T08:51:28.527Z,36.75
2023-04-05T08:53:57.673Z,39.40
2023-04-05T08:56:33.880Z,36.40
2023-04-05T08:59:05.726Z,37.44
2023-04-05T09:01:39.026Z,38.85
2023-04-05T09:04:10.440Z,36.88
2023-04-05T09:06:39.464Z,37.38
2023-04-05T09:09:09.700Z,39.00
2023-04-05T09:11:41.732Z,38.98
2023-04-05T09:14:11.996Z,36.52
2023-04-05T09:16:42.470Z,35.70
2023-04-05T09:19:12.152Z,35.53
2023-04-05T09:22:01.948Z,36.22
2023-04-05T09:24:41.138Z,34.35
2023-04-05T09:27:13.252Z,36.34
2023-04-05T09:29:43.937Z,36.22
2023-04-05T09:32:14.304Z,37.84
2023-04-05T09:34:44.494Z,37.76
2023-04-05T09:37:22.491Z,36.76
2023-04-05T09:40:02.887Z,36.28
2023-04-05T09:42:45.586Z,34.32
2023-04-05T09:45:14.368Z,34.00
2023-04-05T09:47:58.223Z,37.71
2023-04-05T09:50:27.219Z,36.62
2023-04-05T09:53:09.918Z,35.35
2023-04-05T09:55:41.710Z,34.28
2023-04-05T09:58:19.996Z,34.27
2023-04-05T10:00:59.940Z,34.06
2023-04-05T10:03:31.986Z,35.50
2023-04-05T10:06:01.122Z,33.38
2023-04-05T10:08:29.768Z,32.63
2023-04-05T10:10:58.968Z,31.45
2023-04-05T10:13:29.357Z,34.24
2023-04-05T10:16:01.876Z,33.59
2023-04-05T10:18:39.795Z,33.42
2023-04-05T10:21:12.580Z,32.71
2023-04-05T10:23:48.038Z,32.14
2023-04-05T10:26:25.762Z,33.30
2023-04-05T10:29:07.495Z,31.85
2023-04-05T10:31:52.072Z,35.18
2023-04-05T10:34:41.451Z,33.34
2023-04-05T10:37:22.186Z,32.00
2023-04-05T10:39:50.872Z,31.63
2023-04-05T10:42:22.971Z,30.73
2023-04-05T10:45:00.331Z,31.66
2023-04-05T10:47:32.781Z,30.80
2023-04-05T10:50:04.866Z,31.69
2023-04-05T10:52:35.416Z,29.70
2023-04-05T10:55:05.702Z,28.75
2023-04-05T10:57:36.343Z,30.76
2023-04-05T11:00:08.984Z,32.36
2023-04-05T11:02:38.031Z,31.96
2023-04-05T11:05:07.747Z,31.05
2023-04-05T11:07:45.452Z,34.02
2023-04-05T11:10:19.038Z,35.09
2023-04-05T11:13:12.000Z,33.59
2023-04-05T11:15:42.142Z,31.98
2023-04-05T11:18:13.003Z,31.39
2023-04-05T11:20:51.541Z,30.92
2023-04-05T11:23:22.496Z,33.39
2023-04-05T11:25:57.616Z,32.66
2023-04-05T11:28:34.166Z,30.02
2023-04-05T11:31:16.739Z,30.49
2023-04-05T11:34:10.491Z,28.42
2023-04-05T11:36:42.136Z,28.95
2023-04-05T11:39:27.346Z,28.42
2023-04-05T11:42:02.120Z,32.75
2023-04-05T11:44:40.335Z,32.60
2023-04-05T11:47:11.473Z,30.48
2023-04-05T11:49:40.580Z,31.62
2023-04-05T11:52:15.107Z,32.94
2023-04-05T11:54:47.232Z,33.07
2023-04-05T11:57:19.694Z,33.69
2023-04-05T11:59:51.552Z,32.13
2023-04-05T12:02:22.618Z,32.10
2023-04-05T12:04:57.653Z,33.42
2023-04-05T12:07:29.546Z,31.37
2023-04-05T12:10:09.995Z,29.36
2023-04-05T12:12:41.083Z,29.02
2023-04-05T12:15:13.397Z,31.57
2023-04-05T12:17:51.306Z,32.10
2023-04-05T12:20:23.916Z,28.95
2023-04-05T12:22:57.746Z,29.32
2023-04-05T12:25:27.401Z,30.46
2023-04-05T12:27:55.867Z,29.17
2023-04-05T12:30:25.425Z,32.43
2023-04-05T12:32:57.724Z,30.55
2023-04-05T12:35:34.898Z,30.74
2023-04-05T12:38:05.673Z,28.94
2023-04-05T12:40:36.128Z,29.84
2023-04-05T12:43:07.176Z,30.40
2023-04-05T12:45:41.756Z,28.29
2023-04-05T12:48:14.151Z,28.37
2023-04-05T12:50:46.821Z,29.64
2023-04-05T12:53:20.670Z,29.35
2023-04-05T12:55:54.588Z,29.53
2023-04-05T12:58:28.771Z,31.01
2023-04-05T13:00:57.468Z,30.86
2023-04-05T13:03:28.531Z,31.90
2023-04-05T13:05:57.165Z,31.88
2023-04-05T13:08:27.071Z,29.63
2023-04-05T13:10:57.904Z,31.84
2023-04-05T13:13:26.830Z,30.80
2023-04-05T13:15:55.487Z,29.08
2023-04-05T13:18:23.848Z,31.95
2023-04-05T13:20:53.752Z,29.93
2023-04-05T13:23:22.095Z,27.76
2023-04-05T13:25:50.468Z,31.12
2023-04-05T13:28:18.885Z,28.87
2023-04-05T13:30:49.132Z,29.13
2023-04-05T13:33:19.660Z,29.94
2023-04-05T13:35:48.755Z,30.67
2023-04-05T13:38:18.768Z,27.92
2023-04-05T13:40:47.243Z,27.20
2023-04-05T13:43:15.628Z,27.96
2023-04-05T13:45:44.241Z,27.66
2023-04-05T13:48:14.053Z,26.63
2023-04-05T13:50:42.544Z,28.63
2023-04-05T13:53:11.345Z,27.15
2023-04-05T13:55:41.366Z,25.03
2023-04-05T13:58:10.426Z,26.01
2023-04-05T14:00:40.335Z,29.39
2023-04-05T14:03:08.927Z,30.79
2023-04-05T14:05:38.079Z,30.81
2023-04-05T14:08:08.086Z,27.98
2023-04-05T14:10:37.692Z,28.95
2023-04-05T14:13:07.427Z,29.70
2023-04-05T14:15:36.149Z,28.09
2023-04-05T14:18:05.750Z,28.47
2023-04-05T14:20:34.581Z,27.87
2023-04-05T14:23:03.835Z,28.04
2023-04-05T14:25:32.446Z,28.06
2023-04-05T14:28:01.171Z,28.68
2023-04-05T14:30:31.445Z,28.90
2023-04-05T14:33:00.490Z,28.73
2023-04-05T14:35:29.359Z,29.16
2023-04-05T14:37:58.025Z,28.37
2023-04-05T14:40:27.140Z,28.01
2023-04-05T14:42:55.960Z,31.51
2023-04-05T14:45:27.195Z,27.97
2023-04-05T14:47:57.595Z,26.13
2023-04-05T14:50:26.320Z,29.56
2023-04-05T14:52:54.903Z,29.38
2023-04-05T14:55:23.517Z,29.01
2023-04-05T14:57:52.186Z,31.13
2023-04-05T15:00:21.782Z,30.42
2023-04-05T15:02:50.803Z,30.61
2023-04-05T15:05:21.979Z,29.39
2023-04-05T15:07:50.655Z,28.70
2023-04-05T15:10:20.356Z,29.08
2023-04-05T15:12:50.220Z,29.10
2023-04-05T15:15:19.180Z,28.43
2023-04-05T15:17:47.811Z,27.52
2023-04-05T15:20:16.526Z,27.11
2023-04-05T15:22:46.524Z,26.41
2023-04-05T15:25:15.167Z,29.54
2023-04-05T15:27:43.767Z,29.88
2023-04-05T15:30:13.626Z,29.67
2023-04-05T15:32:42.203Z,29.81
2023-04-05T15:35:11.643Z,29.58
2023-04-05T15:37:40.815Z,29.07
2023-04-05T15:40:12.162Z,28.46
2023-04-05T15:42:40.676Z,27.17
2023-04-05T15:45:10.900Z,30.92
2023-04-05T15:47:40.215Z,30.34
2023-04-05T15:50:09.382Z,29.25
2023-04-05T15:52:38.358Z,28.65
2023-04-05T15:55:10.248Z,30.11
2023-04-05T15:57:40.208Z,30.15
2023-04-05T16:00:10.690Z,29.01
2023-04-05T16:02:39.713Z,29.38
2023-04-05T16:05:08.688Z,30.44
2023-04-05T16:07:37.217Z,30.45
2023-04-05T16:10:07.677Z,30.97
2023-04-05T16:12:37.404Z,29.70
2023-04-05T16:15:08.886Z,31.60
2023-04-05T16:17:38.751Z,31.22
2023-04-05T16:20:09.375Z,30.64
2023-04-05T16:22:39.404Z,30.82
2023-04-05T16:25:08.849Z,28.79
2023-04-05T16:27:37.716Z,28.90
2023-04-05T16:30:10.363Z,30.37
2023-04-05T16:32:39.190Z,30.56
2023-04-05T16:35:08.938Z,28.81
2023-04-05T16:37:38.868Z,31.00
2023-04-05T16:40:11.658Z,32.21
2023-04-05T16:42:40.542Z,33.61
2023-04-05T16:45:12.577Z,32.76
2023-04-05T16:47:41.314Z,33.29
2023-04-05T16:50:10.697Z,33.02
2023-04-05T16:52:39.370Z,32.91
2023-04-05T16:55:09.704Z,32.94
2023-04-05T16:57:39.164Z,33.74
2023-04-05T17:00:11.806Z,33.84
2023-04-05T17:02:40.701Z,33.62
2023-04-05T17:05:09.999Z,33.84
2023-04-05T17:07:38.865Z,34.20
2023-04-05T17:10:08.959Z,35.03
2023-04-05T17:12:40.836Z,34.98
2023-04-05T17:15:12.276Z,35.39
2023-04-05T17:17:41.815Z,36.25
2023-04-05T17:20:12.175Z,35.56
2023-04-05T17:22:41.550Z,35.65
2023-04-05T17:25:11.348Z,35.22
2023-04-05T17:27:39.812Z,35.37
2023-04-05T17:30:12.238Z,35.70
2023-04-05T17:32:40.982Z,36.57
2023-04-05T17:35:11.568Z,35.74
2023-04-05T17:37:40.153Z,33.94
2023-04-05T17:40:11.281Z,33.85
2023-04-05T17:42:39.825Z,33.66
2023-04-05T17:45:11.717Z,34.70
2023-04-05T17:47:40.411Z,35.02
2023-04-05T17:50:10.475Z,35.15
2023-04-05T17:52:39.503Z,36.35
2023-04-05T17:55:09.252Z,37.63
2023-04-05T17:57:37.821Z,38.42
2023-04-05T18:00:08.402Z,39.44
2023-04-05T18:02:40.881Z,42.07
2023-04-05T18:05:10.715Z,42.28
2023-04-05T18:07:39.793Z,41.67
2023-04-05T18:10:09.578Z,41.32
2023-04-05T18:12:38.250Z,42.44
2023-04-05T18:15:08.480Z,42.51
2023-04-05T18:17:38.482Z,43.06
2023-04-05T18:20:09.068Z,43.34
2023-04-05T18:22:37.694Z,44.16
2023-04-05T18:25:08.856Z,44.84
2023-04-05T18:27:39.243Z,45.36
2023-04-05T18:30:10.058Z,45.83
2023-04-05T18:32:41.577Z,46.14
2023-04-05T18:35:12.268Z,46.35
2023-04-05T18:37:41.173Z,48.02
2023-04-05T18:40:11.261Z,47.95
2023-04-05T18:42:40.163Z,47.46
2023-04-05T18:45:10.395Z,47.64
2023-04-05T18:47:40.660Z,47.37
2023-04-05T18:50:11.023Z,48.36
2023-04-05T18:52:39.889Z,49.23
2023-04-05T18:55:09.978Z,49.53
2023-04-05T18:57:38.957Z,49.38
2023-04-05T19:00:09.684Z,49.44
2023-04-05T19:02:40.086Z,49.73
2023-04-05T19:05:10.005Z,51.82
2023-04-05T19:07:39.375Z,51.27
2023-04-05T19:10:09.802Z,50.86
2023-04-05T19:12:38.472Z,51.12
2023-04-05T19:15:08.696Z,51.40
2023-04-05T19:17:40.816Z,51.89
2023-04-05T19:20:11.969Z,52.11
2023-04-05T19:22:40.999Z,52.30
2023-04-05T19:25:12.682Z,52.70
2023-04-05T19:27:42.100Z,53.58
2023-04-05T19:30:11.927Z,54.60
2023-04-05T19:32:41.246Z,55.15
2023-04-05T19:35:12.269Z,55.05
2023-04-05T19:37:41.049Z,54.45
2023-04-05T19:40:12.509Z,54.40
2023-04-05T19:42:47.617Z,54.88
2023-04-05T19:45:25.349Z,54.42
2023-04-05T19:47:56.596Z,54.76
2023-04-05T19:50:56.266Z,54.69
2023-04-05T19:53:44.309Z,54.34
2023-04-05T19:56:20.797Z,54.17
2023-04-05T19:58:51.403Z,54.50
2023-04-05T20:01:34.960Z,54.82
2023-04-05T20:04:12.105Z,55.41
2023-04-05T20:06:43.757Z,55.69
2023-04-05T20:09:13.666Z,56.53
2023-04-05T20:11:42.351Z,56.95
2023-04-05T20:14:11.696Z,57.05
2023-04-05T20:16:40.608Z,57.18
2023-04-05T20:19:11.929Z,57.29
2023-04-05T20:21:43.266Z,57.30
2023-04-05T20:24:15.836Z,58.05
2023-04-05T20:26:46.002Z,57.68
2023-04-05T20:29:18.100Z,58.27
2023-04-05T20:31:47.056Z,58.25
2023-04-05T20:34:19.107Z,58.73
2023-04-05T20:36:52.346Z,57.89
2023-04-05T20:39:23.865Z,58.31
2023-04-05T20:41:52.575Z,57.74
2023-04-05T20:44:21.458Z,58.61
2023-04-05T20:46:51.694Z,60.42
2023-04-05T20:49:20.436Z,59.17
2023-04-05T20:51:54.851Z,59.59
2023-04-05T20:54:24.523Z,58.48
2023-04-05T20:56:53.490Z,58.04
2023-04-05T20:59:22.134Z,58.59
2023-04-05T21:01:50.683Z,58.12
2023-04-05T21:04:19.696Z,59.32
2023-04-05T21:06:48.262Z,59.47
2023-04-05T21:09:18.781Z,58.06
2023-04-05T21:11:47.419Z,58.22
2023-04-05T21:14:16.457Z,58.03
2023-04-05T21:16:45.100Z,58.41
2023-04-05T21:19:13.730Z,58.25
2023-04-05T21:21:42.186Z,58.09
2023-04-05T21:24:10.784Z,57.91
2023-04-05T21:26:40.643Z,57.46
2023-04-05T21:29:09.336Z,57.46
2023-04-05T21:31:38.172Z,57.78
2023-04-05T21:34:06.680Z,57.68
2023-04-05T21:36:35.331Z,57.18
2023-04-05T21:39:03.762Z,58.58
2023-04-05T21:41:33.376Z,60.06
2023-04-05T21:44:03.290Z,60.45
2023-04-05T21:46:31.991Z,60.60
2023-04-05T21:49:00.616Z,61.10
2023-04-05T21:51:29.150Z,60.64
2023-04-05T21:53:57.581Z,61.16
2023-04-05T21:56:26.395Z,61.16
2023-04-05T21:58:54.939Z,61.09
2023-04-05T22:01:24.911Z,61.23
2023-04-05T22:03:53.425Z,61.84
2023-04-05T22:06:21.896Z,61.64
2023-04-05T22:08:53.055Z,61.36
2023-04-05T22:11:23.779Z,61.28
2023-04-05T22:13:52.524Z,61.30
2023-04-05T22:16:21.383Z,60.69
2023-04-05T22:18:51.522Z,60.01
2023-04-05T22:21:20.159Z,59.99
2023-04-05T22:23:48.855Z,59.64
2023-04-05T22:26:17.547Z,59.74
2023-04-05T22:28:46.168Z,60.14
2023-04-05T22:31:16.534Z,60.00
2023-04-05T22:33:45.128Z,60.08
2023-04-05T22:36:16.415Z,59.96
2023-04-05T22:38:44.975Z,59.14
2023-04-05T22:41:15.210Z,59.20
2023-04-05T22:43:43.737Z,59.19
2023-04-05T22:46:12.376Z,59.03
2023-04-05T22:48:41.954Z,59.02
2023-04-05T22:51:10.745Z,59.25
2023-04-05T22:53:43.150Z,59.68
2023-04-05T22:56:11.873Z,58.98
2023-04-05T22:58:40.469Z,58.85
2023-04-05T23:01:10.686Z,59.67
2023-04-05T23:03:39.286Z,59.45
2023-04-05T23:06:08.301Z,59.56
2023-04-05T23:08:36.904Z,59.34
2023-04-05T23:11:07.639Z,59.74
2023-04-05T23:13:36.441Z,60.28
2023-04-05T23:16:06.088Z,60.44
2023-04-05T23:18:34.761Z,60.45
2023-04-05T23:21:03.238Z,61.16
2023-04-05T23:23:31.667Z,61.67
2023-04-05T23:26:00.470Z,62.04
2023-04-05T23:28:30.564Z,61.83
2023-04-05T23:30:59.268Z,61.96
2023-04-05T23:33:28.181Z,61.85
2023-04-05T23:35:56.816Z,61.50
2023-04-05T23:38:25.682Z,61.41
2023-04-05T23:40:54.160Z,62.30
2023-04-05T23:43:22.939Z,62.44
2023-04-05T23:45:52.773Z,61.65
2023-04-05T23:48:21.578Z,61.72
2023-04-05T23:50:50.121Z,61.95
2023-04-05T23:53:18.581Z,62.05
2023-04-05T23:55:47.216Z,61.83
2023-04-05T23:58:15.702Z,61.75
